createdAt,value
2023-03-17T00:02:18.462Z,13.00
2023-03-17T00:04:44.994Z,14.07
2023-03-17T00:07:11.467Z,13.38
2023-03-17T00:09:38.001Z,13.18
2023-03-17T00:12:04.395Z,12.63
2023-03-17T00:14:30.746Z,10.90
2023-03-17T00:16:57.236Z,12.57
2023-03-17T00:19:23.698Z,12.02
2023-03-17T00:21:50.101Z,12.52
2023-03-17T00:24:16.495Z,12.55
2023-03-17T00:26:42.818Z,12.55
2023-03-17T00:29:09.185Z,11.18
2023-03-17T00:31:35.705Z,13.15
2023-03-17T00:34:02.128Z,11.93
2023-03-17T00:36:28.656Z,10.90
2023-03-17T00:38:55.223Z,12.40
2023-03-17T00:41:21.629Z,11.85
2023-03-17T00:43:48.220Z,15.48
2023-03-17T00:46:14.762Z,10.40
2023-03-17T00:48:41.296Z,12.65
2023-03-17T00:51:07.738Z,12.68
2023-03-17T00:53:34.252Z,11.90
2023-03-17T00:56:00.844Z,11.65
2023-03-17T00:58:27.398Z,11.60
2023-03-17T01:00:53.858Z,10.20
2023-03-17T01:03:20.199Z,10.93
2023-03-17T01:05:48.182Z,11.02
2023-03-17T01:08:14.639Z,11.38
2023-03-17T01:10:41.158Z,11.52
2023-03-17T01:13:07.635Z,11.38
2023-03-17T01:15:34.149Z,12.10
2023-03-17T01:18:00.778Z,11.60
2023-03-17T01:20:27.339Z,13.90
2023-03-17T01:22:53.953Z,10.85
2023-03-17T01:25:20.368Z,10.98
2023-03-17T01:27:46.844Z,12.57
2023-03-17T01:30:13.306Z,10.57
2023-03-17T01:32:39.684Z,11.18
2023-03-17T01:35:06.111Z,10.95
2023-03-17T01:37:32.664Z,11.85
2023-03-17T01:39:58.991Z,10.57
2023-03-17T01:42:25.371Z,10.93
2023-03-17T01:44:51.903Z,11.80
2023-03-17T01:47:18.304Z,11.07
2023-03-17T01:49:44.788Z,12.38
2023-03-17T01:52:11.344Z,10.52
2023-03-17T01:54:37.742Z,11.45
2023-03-17T01:57:04.680Z,11.25
2023-03-17T01:59:31.114Z,10.95
2023-03-17T02:01:57.486Z,9.27
2023-03-17T02:04:23.906Z,11.63
2023-03-17T02:06:57.885Z,11.75
2023-03-17T02:09:25.115Z,12.85
2023-03-17T02:11:51.565Z,11.75
2023-03-17T02:14:17.980Z,11.00
2023-03-17T02:16:44.450Z,10.00
2023-03-17T02:19:10.931Z,11.10
2023-03-17T02:21:37.335Z,10.95
2023-03-17T02:24:03.753Z,11.35
2023-03-17T02:26:30.258Z,11.02
2023-03-17T02:28:56.601Z,12.98
2023-03-17T02:31:23.370Z,10.55
2023-03-17T02:33:51.550Z,12.43
2023-03-17T02:36:17.905Z,12.88
2023-03-17T02:38:46.242Z,11.15
2023-03-17T02:41:12.704Z,11.90
2023-03-17T02:43:39.157Z,13.43
2023-03-17T02:46:05.767Z,10.48
2023-03-17T02:48:32.352Z,11.80
2023-03-17T02:50:58.970Z,11.65
2023-03-17T02:53:25.472Z,10.07
2023-03-17T02:55:51.841Z,12.10
2023-03-17T02:58:18.197Z,10.93
2023-03-17T03:00:44.530Z,13.90
2023-03-17T03:03:10.910Z,11.73
2023-03-17T03:05:37.312Z,13.25
2023-03-17T03:08:03.710Z,11.45
2023-03-17T03:10:30.316Z,10.00
2023-03-17T03:12:56.870Z,9.68
2023-03-17T03:15:23.305Z,10.25
2023-03-17T03:17:49.818Z,10.70
2023-03-17T03:20:16.230Z,10.40
2023-03-17T03:22:42.662Z,9.05
2023-03-17T03:25:09.062Z,9.63
2023-03-17T03:27:35.434Z,12.63
2023-03-17T03:30:01.765Z,9.38
2023-03-17T03:32:28.180Z,8.23
2023-03-17T03:34:54.672Z,9.05
2023-03-17T03:37:21.103Z,9.45
2023-03-17T03:39:47.597Z,8.75
2023-03-17T03:42:13.986Z,8.80
2023-03-17T03:44:40.482Z,8.85
2023-03-17T03:47:06.920Z,8.50
2023-03-17T03:49:33.282Z,8.77
2023-03-17T03:51:59.811Z,8.52
2023-03-17T03:54:26.393Z,10.05
2023-03-17T03:56:52.761Z,9.00
2023-03-17T03:59:19.222Z,9.07
2023-03-17T04:01:45.709Z,21.42
2023-03-17T04:04:12.165Z,24.08
2023-03-17T04:06:38.668Z,17.00
2023-03-17T04:09:05.205Z,21.23
2023-03-17T04:11:31.602Z,23.25
2023-03-17T04:13:58.203Z,16.38
2023-03-17T04:16:24.816Z,22.30
2023-03-17T04:18:51.387Z,15.48
2023-03-17T04:21:17.766Z,18.77
2023-03-17T04:23:44.145Z,15.55
2023-03-17T04:26:10.611Z,10.85
2023-03-17T04:28:37.003Z,15.57
2023-03-17T04:31:03.382Z,17.02
2023-03-17T04:33:29.786Z,11.77
2023-03-17T04:35:56.305Z,13.15
2023-03-17T04:38:22.878Z,10.68
2023-03-17T04:40:49.337Z,13.85
2023-03-17T04:43:15.761Z,11.07
2023-03-17T04:45:42.293Z,11.20
2023-03-17T04:48:08.705Z,16.73
2023-03-17T04:50:35.136Z,11.75
2023-03-17T04:53:01.895Z,13.60
2023-03-17T04:55:28.347Z,12.85
2023-03-17T04:57:54.775Z,13.05
2023-03-17T05:00:21.320Z,16.45
2023-03-17T05:02:47.762Z,12.00
2023-03-17T05:05:14.154Z,9.68
2023-03-17T05:07:40.618Z,11.57
2023-03-17T05:10:07.091Z,14.85
2023-03-17T05:12:33.581Z,10.88
2023-03-17T05:15:00.151Z,12.13
2023-03-17T05:17:26.616Z,13.00
2023-03-17T05:19:53.104Z,13.25
2023-03-17T05:22:19.655Z,10.13
2023-03-17T05:24:46.111Z,10.90
2023-03-17T05:27:12.560Z,41.70
2023-03-17T05:29:39.139Z,10.13
2023-03-17T05:32:05.632Z,19.02
2023-03-17T05:34:32.155Z,12.57
2023-03-17T05:36:58.775Z,22.77
2023-03-17T05:39:25.207Z,31.73
2023-03-17T05:41:51.619Z,25.45
2023-03-17T05:44:18.091Z,18.98
2023-03-17T05:46:44.535Z,18.75
2023-03-17T05:49:11.021Z,19.60
2023-03-17T05:51:37.601Z,17.40
2023-03-17T05:54:03.970Z,17.63
2023-03-17T05:56:30.384Z,17.38
2023-03-17T05:58:57.001Z,18.17
2023-03-17T06:01:23.469Z,16.70
2023-03-17T06:03:50.129Z,21.85
2023-03-17T06:06:16.757Z,19.55
2023-03-17T06:08:43.225Z,23.90
2023-03-17T06:11:09.694Z,19.73
2023-03-17T06:13:36.292Z,18.00
2023-03-17T06:16:02.833Z,18.85
2023-03-17T06:18:29.293Z,16.20
2023-03-17T06:20:55.853Z,18.80
2023-03-17T06:23:22.339Z,14.80
2023-03-17T06:25:48.796Z,16.30
2023-03-17T06:28:15.275Z,14.35
2023-03-17T06:30:41.663Z,13.85
2023-03-17T06:33:08.272Z,12.80
2023-03-17T06:35:35.143Z,10.40
2023-03-17T06:38:01.766Z,11.68
2023-03-17T06:40:28.155Z,9.82
2023-03-17T06:42:54.709Z,13.27
2023-03-17T06:45:21.094Z,9.43
2023-03-17T06:47:47.461Z,10.20
2023-03-17T06:50:13.950Z,14.50
2023-03-17T06:52:40.285Z,10.65
2023-03-17T06:55:06.681Z,11.13
2023-03-17T06:57:33.153Z,14.65
2023-03-17T06:59:59.546Z,10.52
2023-03-17T07:02:25.939Z,15.00
2023-03-17T07:04:52.409Z,12.85
2023-03-17T07:07:18.914Z,12.40
2023-03-17T07:09:45.318Z,10.93
2023-03-17T07:12:11.811Z,12.45
2023-03-17T07:14:38.179Z,10.02
2023-03-17T07:17:04.557Z,7.95
2023-03-17T07:19:30.965Z,8.63
2023-03-17T07:21:57.492Z,13.07
2023-03-17T07:24:23.882Z,17.35
2023-03-17T07:26:50.345Z,15.95
2023-03-17T07:29:16.792Z,16.83
2023-03-17T07:31:43.226Z,11.48
2023-03-17T07:34:09.666Z,16.60
2023-03-17T07:36:36.084Z,11.65
2023-03-17T07:39:02.502Z,11.43
2023-03-17T07:41:28.940Z,8.60
2023-03-17T07:43:55.382Z,8.52
2023-03-17T07:46:21.783Z,14.02
2023-03-17T07:48:48.213Z,10.18
2023-03-17T07:51:14.605Z,12.43
2023-03-17T07:53:41.028Z,9.32
2023-03-17T07:56:07.466Z,12.90
2023-03-17T07:58:33.820Z,12.13
2023-03-17T08:01:00.203Z,8.13
2023-03-17T08:03:26.708Z,8.68
2023-03-17T08:05:53.126Z,13.75
2023-03-17T08:08:19.536Z,12.45
2023-03-17T08:10:45.987Z,10.75
2023-03-17T08:13:12.453Z,11.43
2023-03-17T08:15:38.852Z,16.70
2023-03-17T08:18:05.281Z,13.32
2023-03-17T08:20:31.964Z,13.38
2023-03-17T08:22:58.491Z,14.07
2023-03-17T08:25:24.944Z,17.00
2023-03-17T08:27:51.321Z,13.85
2023-03-17T08:30:17.716Z,11.52
2023-03-17T08:32:44.196Z,13.07
2023-03-17T08:35:10.568Z,9.30
2023-03-17T08:37:36.935Z,10.90
2023-03-17T08:40:03.339Z,12.10
2023-03-17T08:42:29.709Z,16.85
2023-03-17T08:44:56.076Z,18.77
2023-03-17T08:47:22.567Z,10.40
2023-03-17T08:49:48.970Z,11.00
2023-03-17T08:52:15.361Z,16.27
2023-03-17T08:54:41.822Z,16.17
2023-03-17T08:57:08.245Z,13.70
2023-03-17T08:59:34.659Z,18.02
2023-03-17T09:02:01.058Z,15.95
2023-03-17T09:04:27.420Z,13.52
2023-03-17T09:07:03.370Z,26.98
2023-03-17T09:09:30.013Z,19.65
2023-03-17T09:11:56.408Z,18.08
2023-03-17T09:14:22.773Z,19.83
2023-03-17T09:16:49.322Z,19.35
2023-03-17T09:19:15.683Z,16.40
2023-03-17T09:21:42.069Z,19.80
2023-03-17T09:24:08.498Z,25.58
2023-03-17T09:26:34.852Z,20.95
2023-03-17T09:29:03.659Z,13.65
2023-03-17T09:31:30.228Z,15.35
2023-03-17T09:33:56.602Z,17.98
2023-03-17T09:36:23.067Z,12.27
2023-03-17T09:38:49.477Z,11.18
2023-03-17T09:41:15.861Z,11.02
2023-03-17T09:43:42.325Z,8.60
2023-03-17T09:46:08.852Z,8.88
2023-03-17T09:48:35.231Z,11.27
2023-03-17T09:51:01.631Z,8.13
2023-03-17T09:53:28.137Z,11.35
2023-03-17T09:55:54.508Z,11.48
2023-03-17T09:58:20.919Z,9.95
2023-03-17T10:00:47.346Z,15.65
2023-03-17T10:03:13.729Z,10.52
2023-03-17T10:05:40.113Z,8.30
2023-03-17T10:08:19.026Z,10.93
2023-03-17T10:10:49.385Z,11.43
2023-03-17T10:13:15.835Z,9.85
2023-03-17T10:15:42.256Z,9.13
2023-03-17T10:18:08.621Z,6.50
2023-03-17T10:20:35.105Z,9.45
2023-03-17T10:23:01.546Z,5.68
2023-03-17T10:25:27.921Z,6.05
2023-03-17T10:27:54.341Z,6.75
2023-03-17T10:30:20.765Z,9.48
2023-03-17T10:32:47.204Z,7.70
2023-03-17T10:35:13.726Z,6.60
2023-03-17T10:37:42.533Z,29.20
2023-03-17T10:40:10.160Z,10.43
2023-03-17T10:42:36.602Z,6.38
2023-03-17T10:45:02.981Z,6.45
2023-03-17T10:47:29.395Z,7.20
2023-03-17T10:49:55.874Z,19.83
2023-03-17T10:52:22.289Z,7.43
2023-03-17T10:54:48.678Z,6.90
2023-03-17T10:57:15.154Z,7.93
2023-03-17T10:59:43.398Z,7.63
2023-03-17T11:02:10.661Z,5.82
2023-03-17T11:04:37.111Z,8.07
2023-03-17T11:07:03.476Z,12.55
2023-03-17T11:09:29.908Z,6.88
2023-03-17T11:11:56.312Z,7.10
2023-03-17T11:14:22.670Z,10.90
2023-03-17T11:16:49.111Z,13.15
2023-03-17T11:19:15.564Z,10.02
2023-03-17T11:21:41.940Z,14.70
2023-03-17T11:24:08.314Z,7.32
2023-03-17T11:26:34.791Z,8.38
2023-03-17T11:29:01.164Z,8.48
2023-03-17T11:31:27.602Z,10.80
2023-03-17T11:33:54.119Z,6.95
2023-03-17T11:36:20.551Z,8.10
2023-03-17T11:38:46.930Z,5.00
2023-03-17T11:41:13.345Z,9.23
2023-03-17T11:43:39.743Z,11.70
2023-03-17T11:46:06.146Z,9.15
2023-03-17T11:48:32.569Z,7.22
2023-03-17T11:50:58.968Z,12.10
2023-03-17T11:53:25.334Z,19.30
2023-03-17T11:55:51.810Z,14.45
2023-03-17T11:58:18.197Z,10.25
2023-03-17T12:00:44.589Z,12.30
2023-03-17T12:03:11.045Z,14.02
2023-03-17T12:05:37.444Z,17.05
2023-03-17T12:08:03.829Z,11.60
2023-03-17T12:10:30.537Z,8.48
2023-03-17T12:12:57.058Z,9.70
2023-03-17T12:15:23.453Z,9.27
2023-03-17T12:17:49.836Z,8.07
2023-03-17T12:20:16.205Z,16.55
2023-03-17T12:22:42.586Z,10.23
2023-03-17T12:25:08.988Z,8.35
2023-03-17T12:27:35.377Z,14.45
2023-03-17T12:30:01.766Z,9.88
2023-03-17T12:32:28.213Z,23.08
2023-03-17T12:34:56.964Z,15.40
2023-03-17T12:37:23.609Z,17.60
2023-03-17T12:39:50.001Z,20.83
2023-03-17T12:42:16.495Z,16.02
2023-03-17T12:44:42.855Z,10.55
2023-03-17T12:47:09.285Z,15.60
2023-03-17T12:49:35.704Z,13.05
2023-03-17T12:52:02.083Z,13.57
2023-03-17T12:54:28.533Z,11.57
2023-03-17T12:56:54.985Z,11.63
2023-03-17T12:59:21.347Z,9.23
2023-03-17T13:01:47.817Z,11.10
2023-03-17T13:04:14.336Z,12.50
2023-03-17T13:06:40.730Z,12.35
2023-03-17T13:09:07.146Z,13.27
2023-03-17T13:11:33.608Z,8.73
2023-03-17T13:14:00.031Z,8.95
2023-03-17T13:16:26.798Z,13.50
2023-03-17T13:18:53.275Z,9.77
2023-03-17T13:21:19.649Z,7.50
2023-03-17T13:23:46.062Z,8.13
2023-03-17T13:26:12.442Z,8.85
2023-03-17T13:28:38.860Z,7.32
2023-03-17T13:31:05.462Z,6.35
2023-03-17T13:33:32.056Z,5.43
2023-03-17T13:35:58.606Z,8.38
2023-03-17T13:38:25.117Z,6.63
2023-03-17T13:40:51.518Z,7.00
2023-03-17T13:43:17.926Z,5.70
2023-03-17T13:45:44.390Z,6.28
2023-03-17T13:48:10.816Z,8.43
2023-03-17T13:50:37.239Z,6.25
2023-03-17T13:53:03.674Z,8.10
2023-03-17T13:55:30.466Z,9.30
2023-03-17T13:57:57.141Z,4.97
2023-03-17T14:00:23.647Z,6.65
2023-03-17T14:02:50.121Z,8.30
2023-03-17T14:05:16.494Z,6.55
2023-03-17T14:07:42.903Z,4.90
2023-03-17T14:10:10.742Z,9.05
2023-03-17T14:12:37.149Z,4.78
2023-03-17T14:15:03.535Z,7.93
2023-03-17T14:17:29.987Z,7.18
2023-03-17T14:19:56.390Z,5.32
2023-03-17T14:22:22.783Z,6.10
2023-03-17T14:24:49.159Z,6.70
2023-03-17T14:27:15.484Z,11.25
2023-03-17T14:29:41.866Z,9.55
2023-03-17T14:32:08.329Z,9.88
2023-03-17T14:34:34.687Z,9.32
2023-03-17T14:37:01.051Z,6.00
2023-03-17T14:39:27.364Z,7.28
2023-03-17T14:41:53.681Z,8.88
2023-03-17T14:44:20.240Z,11.05
2023-03-17T14:46:46.604Z,5.22
2023-03-17T14:49:12.977Z,5.13
2023-03-17T14:51:39.404Z,9.07
2023-03-17T14:54:05.732Z,8.18
2023-03-17T14:56:32.054Z,8.73
2023-03-17T14:58:58.414Z,7.95
2023-03-17T15:01:26.421Z,7.55
2023-03-17T15:03:53.857Z,6.60
2023-03-17T15:06:20.427Z,6.57
2023-03-17T15:08:46.777Z,7.82
2023-03-17T15:11:13.084Z,7.25
2023-03-17T15:13:39.449Z,11.18
2023-03-17T15:16:05.775Z,5.20
2023-03-17T15:18:32.095Z,6.53
2023-03-17T15:20:58.483Z,5.63
2023-03-17T15:23:24.810Z,6.28
2023-03-17T15:25:51.197Z,5.93
2023-03-17T15:28:17.616Z,4.97
2023-03-17T15:30:47.489Z,6.82
2023-03-17T15:33:14.362Z,7.30
2023-03-17T15:35:40.734Z,5.40
2023-03-17T15:38:07.158Z,5.90
2023-03-17T15:40:33.812Z,5.40
2023-03-17T15:43:00.221Z,5.22
2023-03-17T15:45:26.607Z,6.40
2023-03-17T15:47:52.967Z,5.57
2023-03-17T15:50:19.294Z,6.05
2023-03-17T15:52:45.694Z,5.93
2023-03-17T15:55:12.031Z,5.82
2023-03-17T15:57:38.398Z,4.43
2023-03-17T16:00:04.773Z,5.93
2023-03-17T16:02:38.647Z,3.63
2023-03-17T16:05:04.993Z,4.93
2023-03-17T16:07:31.300Z,6.13
2023-03-17T16:09:57.663Z,4.78
2023-03-17T16:12:23.989Z,4.00
2023-03-17T16:14:50.347Z,4.53
2023-03-17T16:17:16.731Z,4.88
2023-03-17T16:19:43.051Z,4.18
2023-03-17T16:22:09.363Z,4.03
2023-03-17T16:24:35.730Z,4.38
2023-03-17T16:27:02.095Z,3.38
2023-03-17T16:29:28.461Z,4.70
2023-03-17T16:31:54.837Z,3.70
2023-03-17T16:34:21.153Z,4.70
2023-03-17T16:36:47.475Z,3.38
2023-03-17T16:39:13.858Z,4.95
2023-03-17T16:41:40.206Z,5.28
2023-03-17T16:44:06.519Z,3.95
2023-03-17T16:46:34.859Z,4.07
2023-03-17T16:49:02.058Z,4.18
2023-03-17T16:51:28.539Z,3.95
2023-03-17T16:53:54.873Z,3.58
2023-03-17T16:56:21.236Z,3.83
2023-03-17T16:58:47.623Z,4.25
2023-03-17T17:01:14.056Z,3.63
2023-03-17T17:03:40.371Z,4.70
2023-03-17T17:06:06.694Z,3.83
2023-03-17T17:08:33.067Z,5.65
2023-03-17T17:10:59.369Z,4.22
2023-03-17T17:13:25.700Z,5.03
2023-03-17T17:15:52.106Z,3.90
2023-03-17T17:18:18.506Z,4.63
2023-03-17T17:20:44.911Z,4.22
2023-03-17T17:23:11.286Z,3.90
2023-03-17T17:25:37.624Z,4.05
2023-03-17T17:28:03.945Z,5.63
2023-03-17T17:30:30.570Z,3.40
2023-03-17T17:32:57.211Z,3.85
2023-03-17T17:35:23.592Z,4.20
2023-03-17T17:37:49.994Z,3.40
2023-03-17T17:40:16.315Z,5.05
2023-03-17T17:42:42.635Z,4.40
2023-03-17T17:45:09.009Z,3.47
2023-03-17T17:47:35.327Z,3.90
2023-03-17T17:50:01.644Z,3.90
2023-03-17T17:52:28.047Z,4.25
2023-03-17T17:54:54.440Z,3.88
2023-03-17T17:57:20.755Z,3.97
2023-03-17T17:59:47.108Z,5.15
2023-03-17T18:02:13.617Z,4.03
2023-03-17T18:04:40.000Z,4.15
2023-03-17T18:07:06.380Z,4.07
2023-03-17T18:09:32.769Z,3.50
2023-03-17T18:11:59.082Z,3.95
2023-03-17T18:14:25.466Z,4.45
2023-03-17T18:16:51.805Z,4.57
2023-03-17T18:19:18.150Z,5.28
2023-03-17T18:21:44.543Z,4.13
2023-03-17T18:24:10.910Z,4.35
2023-03-17T18:26:37.261Z,4.07
2023-03-17T18:29:03.655Z,3.90
2023-03-17T18:31:30.012Z,3.78
2023-03-17T18:33:56.341Z,4.85
2023-03-17T18:36:22.694Z,4.10
2023-03-17T18:38:49.019Z,3.65
2023-03-17T18:41:15.343Z,5.47
2023-03-17T18:43:41.707Z,3.75
2023-03-17T18:46:08.068Z,4.47
2023-03-17T18:48:34.465Z,4.15
2023-03-17T18:51:00.838Z,4.40
2023-03-17T18:53:27.160Z,4.65
2023-03-17T18:55:53.569Z,4.60
2023-03-17T18:58:19.929Z,4.20
2023-03-17T19:00:46.464Z,4.65
2023-03-17T19:03:12.922Z,4.28
2023-03-17T19:05:39.325Z,4.80
2023-03-17T19:08:05.772Z,4.80
2023-03-17T19:10:32.239Z,5.22
2023-03-17T19:12:58.735Z,4.90
2023-03-17T19:15:25.062Z,4.78
2023-03-17T19:17:51.397Z,5.10
2023-03-17T19:20:17.770Z,6.45
2023-03-17T19:22:44.076Z,5.07
2023-03-17T19:25:10.405Z,5.53
2023-03-17T19:27:36.777Z,5.35
2023-03-17T19:30:03.089Z,7.05
2023-03-17T19:32:29.452Z,4.93
2023-03-17T19:34:55.857Z,4.95
2023-03-17T19:37:22.172Z,6.13
2023-03-17T19:39:48.517Z,5.93
2023-03-17T19:42:14.883Z,5.63
2023-03-17T19:44:41.220Z,5.22
2023-03-17T19:47:07.542Z,5.47
2023-03-17T19:49:33.930Z,6.72
2023-03-17T19:52:00.245Z,6.53
2023-03-17T19:54:26.546Z,6.53
2023-03-17T19:56:52.929Z,5.88
2023-03-17T19:59:19.243Z,7.22
2023-03-17T20:01:45.580Z,5.65
2023-03-17T20:04:12.013Z,6.15
2023-03-17T20:06:38.364Z,5.63
2023-03-17T20:09:04.696Z,6.15
2023-03-17T20:11:31.072Z,5.90
2023-03-17T20:13:57.384Z,7.00
2023-03-17T20:16:23.724Z,6.63
2023-03-17T20:18:50.097Z,5.85
2023-03-17T20:21:16.417Z,6.72
2023-03-17T20:23:42.723Z,6.68
2023-03-17T20:26:09.120Z,7.32
2023-03-17T20:28:35.441Z,8.60
2023-03-17T20:31:01.793Z,7.35
2023-03-17T20:33:28.195Z,7.45
2023-03-17T20:35:54.558Z,6.10
2023-03-17T20:38:20.926Z,6.05
2023-03-17T20:40:47.340Z,6.13
2023-03-17T20:43:13.676Z,6.70
2023-03-17T20:45:40.056Z,6.45
2023-03-17T20:48:06.497Z,6.45
2023-03-17T20:50:33.215Z,7.43
2023-03-17T20:52:59.804Z,6.93
2023-03-17T20:55:26.274Z,8.05
2023-03-17T20:57:52.600Z,7.05
2023-03-17T21:00:18.920Z,7.38
2023-03-17T21:02:45.357Z,7.57
2023-03-17T21:05:11.776Z,7.03
2023-03-17T21:07:38.074Z,8.13
2023-03-17T21:10:04.546Z,7.85
2023-03-17T21:12:30.936Z,7.22
2023-03-17T21:14:57.233Z,7.82
2023-03-17T21:17:23.635Z,7.80
2023-03-17T21:19:49.962Z,7.70
2023-03-17T21:22:16.275Z,7.78
2023-03-17T21:24:42.722Z,7.35
2023-03-17T21:27:09.042Z,8.65
2023-03-17T21:29:35.361Z,7.63
2023-03-17T21:32:01.904Z,7.68
2023-03-17T21:34:28.200Z,7.00
2023-03-17T21:36:54.519Z,8.10
2023-03-17T21:39:20.938Z,8.68
2023-03-17T21:41:47.256Z,8.13
2023-03-17T21:44:13.593Z,7.75
2023-03-17T21:46:40.008Z,8.55
2023-03-17T21:49:06.336Z,8.25
2023-03-17T21:51:32.632Z,8.45
2023-03-17T21:53:59.110Z,8.77
2023-03-17T21:56:25.407Z,9.07
2023-03-17T21:58:51.741Z,9.35
2023-03-17T22:01:18.142Z,9.85
2023-03-17T22:03:44.502Z,9.25
2023-03-17T22:06:10.878Z,9.85
2023-03-17T22:08:37.290Z,9.80
2023-03-17T22:11:03.720Z,11.35
2023-03-17T22:13:30.017Z,11.15
2023-03-17T22:15:56.364Z,11.73
2023-03-17T22:18:22.750Z,12.32
2023-03-17T22:20:49.055Z,11.20
2023-03-17T22:23:15.426Z,12.57
2023-03-17T22:25:41.760Z,13.63
2023-03-17T22:28:08.120Z,13.13
2023-03-17T22:30:34.672Z,14.43
2023-03-17T22:33:01.028Z,16.55
2023-03-17T22:35:27.374Z,15.48
2023-03-17T22:37:53.754Z,14.98
2023-03-17T22:40:20.057Z,13.02
2023-03-17T22:42:46.364Z,15.63
2023-03-17T22:45:13.241Z,14.60
2023-03-17T22:47:39.614Z,13.88
2023-03-17T22:50:05.927Z,13.95
2023-03-17T22:52:32.286Z,15.57
2023-03-17T22:54:58.610Z,13.75
2023-03-17T22:57:25.055Z,13.50
2023-03-17T22:59:51.495Z,15.93
2023-03-17T23:02:18.651Z,13.98
2023-03-17T23:04:45.041Z,13.60
2023-03-17T23:07:11.411Z,13.65
2023-03-17T23:09:37.750Z,15.00
2023-03-17T23:12:04.083Z,13.32
2023-03-17T23:14:30.460Z,14.02
2023-03-17T23:16:56.792Z,13.88
2023-03-17T23:19:23.141Z,15.25
2023-03-17T23:21:49.493Z,15.70
2023-03-17T23:24:15.834Z,15.05
2023-03-17T23:26:42.160Z,13.70
2023-03-17T23:29:08.545Z,14.88
2023-03-17T23:31:34.854Z,17.02
2023-03-17T23:34:01.173Z,15.40
2023-03-17T23:36:27.547Z,15.15
2023-03-17T23:38:53.870Z,15.25
2023-03-17T23:41:20.158Z,15.52
2023-03-17T23:43:46.537Z,17.38
2023-03-17T23:46:12.894Z,15.80
2023-03-17T23:48:41.536Z,16.75
2023-03-17T23:51:08.960Z,14.35
2023-03-17T23:53:35.274Z,14.90
2023-03-17T23:56:01.608Z,17.00
2023-03-17T23:58:27.990Z,17.02
